Terminal Aerodrome Forecast
Issued by NWS Grand Rapids, MI

Home | Current Version | Previous Version | Text Only | Print | Product List | Glossary On
Versions: 1 2 3 4 5 6 7 8 9 10 11 12 13 14 15 16 17 18
965
FTUS43 KGRR 261350 AAA
TAFGRR
TAF AMD
KGRR 261350Z 2614/2712 21010KT P6SM BKN015
     FM261800 21012G21KT 5SM -TSRA BR BKN050CB
     FM262100 19009KT P6SM SCT050
     FM270400 17004KT 4SM BR BKN250
     FM270900 15004KT 2SM BR SCT009=

USA.gov is the U.S. government's official web portal to all federal, state and local government web resources and services.